Time;durP1;ratioP1;P1;durP2;ratioP2;P2;SDS_P1;SDS_P2;PMS_P1;PMS_P2;Temp;Humidity;BMP_temperature;BMP_pressure;BME280_temperature;BME280_humidity;BME280_pressure;Samples;Min_cycle;Max_cycle;Signal;HPM_P1;HPM_P2
2022/11/11 00:00:28;;;;;;;69.55;34.47;;;;;;;;;;5094432;28;20048;-77
2022/11/11 00:03:33;;;;;;;77.10;38.00;;;;;;;;;;5094172;28;20048;-78
2022/11/11 00:06:37;;;;;;;73.67;34.37;;;;;;;;;;5092927;28;20048;-79
2022/11/11 00:09:41;;;;;;;71.07;31.60;;;;;;;;;;5093518;28;20292;-79
2022/11/11 00:12:45;;;;;;;73.97;36.10;;;;;;;;;;5074024;28;20040;-78
2022/11/11 00:15:48;;;;;;;69.68;35.75;;;;;;;;;;5080528;28;20404;-78
2022/11/11 00:25:50;;;;;;;81.03;39.00;;;;;;;;;;5087211;28;20044;-79
2022/11/11 00:28:53;;;;;;;84.78;39.20;;;;;;;;;;5093944;28;20044;-78
2022/11/11 00:38:45;;;;;;;68.88;36.38;;;;;;;;;;5085463;28;20052;-79
2022/11/11 00:41:49;;;;;;;76.00;36.45;;;;;;;;;;5091185;28;20399;-78
2022/11/11 00:44:54;;;;;;;69.07;36.93;;;;;;;;;;5091464;28;20040;-78
2022/11/11 00:51:22;;;;;;;73.07;36.17;;;;;;;;;;5095878;28;20047;-79
2022/11/11 00:54:25;;;;;;;71.70;36.20;;;;;;;;;;5104230;28;20044;-82
2022/11/11 00:57:29;;;;;;;67.10;34.80;;;;;;;;;;5095149;28;20056;-77
2022/11/11 01:00:34;;;;;;;68.10;35.78;;;;;;;;;;5096870;28;20039;-78
2022/11/11 01:03:38;;;;;;;62.72;33.40;;;;;;;;;;5097955;28;20472;-79
2022/11/11 01:06:41;;;;;;;64.82;32.88;;;;;;;;;;5097328;28;20044;-78
2022/11/11 01:09:45;;;;;;;59.72;32.42;;;;;;;;;;5097351;28;20472;-77
2022/11/11 01:12:48;;;;;;;63.53;31.40;;;;;;;;;;5095988;28;20489;-80
2022/11/11 01:15:58;;;;;;;55.72;30.38;;;;;;;;;;5097651;28;20472;-77
2022/11/11 01:19:02;;;;;;;57.80;31.70;;;;;;;;;;5097283;28;20056;-79
2022/11/11 01:22:05;;;;;;;48.08;27.42;;;;;;;;;;5097357;28;20040;-78
2022/11/11 01:25:09;;;;;;;47.70;28.02;;;;;;;;;;5097855;28;20036;-79
2022/11/11 01:28:12;;;;;;;49.83;27.38;;;;;;;;;;5097208;28;20040;-77
2022/11/11 01:31:17;;;;;;;53.35;26.75;;;;;;;;;;5097425;28;20044;-78
2022/11/11 01:34:22;;;;;;;46.92;24.85;;;;;;;;;;5096781;28;20476;-78
2022/11/11 01:37:26;;;;;;;44.95;25.13;;;;;;;;;;5097386;28;20036;-79
2022/11/11 01:40:31;;;;;;;43.13;24.53;;;;;;;;;;5096832;28;20040;-79
2022/11/11 01:43:35;;;;;;;44.50;23.77;;;;;;;;;;5097269;28;20260;-78
2022/11/11 01:46:43;;;;;;;46.03;24.33;;;;;;;;;;5096856;28;20488;-78
2022/11/11 01:49:56;;;;;;;44.13;24.58;;;;;;;;;;5096601;28;20040;-78
2022/11/11 01:53:00;;;;;;;46.78;24.38;;;;;;;;;;5097135;28;20048;-78
2022/11/11 01:56:05;;;;;;;47.47;24.95;;;;;;;;;;5096497;28;20384;-78
2022/11/11 01:59:12;;;;;;;46.03;25.60;;;;;;;;;;5096526;28;20479;-77
2022/11/11 02:02:23;;;;;;;47.35;23.55;;;;;;;;;;5096432;28;20392;-79
2022/11/11 02:05:44;;;;;;;48.22;26.08;;;;;;;;;;5096868;28;20051;-78
2022/11/11 02:08:48;;;;;;;45.97;26.15;;;;;;;;;;5095354;28;20044;-77
2022/11/11 02:15:16;;;;;;;53.25;28.88;;;;;;;;;;5095804;28;20464;-78
2022/11/11 02:18:21;;;;;;;51.92;27.20;;;;;;;;;;5096274;28;20040;-78
2022/11/11 02:21:44;;;;;;;44.30;24.83;;;;;;;;;;5096137;28;20047;-79
2022/11/11 02:24:50;;;;;;;46.55;25.38;;;;;;;;;;5095894;28;20044;-78
2022/11/11 02:27:58;;;;;;;43.95;24.05;;;;;;;;;;5096325;28;20040;-79
2022/11/11 02:31:02;;;;;;;43.45;23.85;;;;;;;;;;5095759;28;20040;-79
2022/11/11 02:34:06;;;;;;;46.50;25.77;;;;;;;;;;5096505;28;20044;-78
2022/11/11 02:37:10;;;;;;;40.30;22.80;;;;;;;;;;5095944;28;20048;-78
2022/11/11 02:40:22;;;;;;;47.78;25.30;;;;;;;;;;5095860;28;20044;-78
2022/11/11 02:43:26;;;;;;;54.00;30.05;;;;;;;;;;5094743;28;20040;-78
2022/11/11 02:46:30;;;;;;;43.03;22.63;;;;;;;;;;5095983;28;20464;-78
2022/11/11 02:49:34;;;;;;;40.33;22.63;;;;;;;;;;5095794;28;20384;-79
2022/11/11 02:52:38;;;;;;;37.42;20.88;;;;;;;;;;5095620;28;20040;-80
2022/11/11 02:55:42;;;;;;;41.57;22.10;;;;;;;;;;5095560;28;20044;-79
2022/11/11 02:58:47;;;;;;;41.85;22.85;;;;;;;;;;5095218;28;20044;-79
2022/11/11 03:01:50;;;;;;;54.60;28.48;;;;;;;;;;5094946;28;20399;-80
2022/11/11 03:04:55;;;;;;;57.00;29.25;;;;;;;;;;5095078;28;20044;-80
2022/11/11 03:07:58;;;;;;;43.42;22.63;;;;;;;;;;5094784;28;20044;-79
2022/11/11 03:11:02;;;;;;;39.17;20.23;;;;;;;;;;5094355;28;20066;-80
2022/11/11 03:14:07;;;;;;;37.78;20.95;;;;;;;;;;5095158;28;20048;-78
2022/11/11 03:23:56;;;;;;;34.00;18.17;;;;;;;;;;5094721;28;20040;-80
2022/11/11 03:26:59;;;;;;;35.03;18.70;;;;;;;;;;5094601;28;20056;-80
2022/11/11 03:30:03;;;;;;;29.00;16.65;;;;;;;;;;5094690;28;20036;-80
2022/11/11 03:33:08;;;;;;;28.83;17.25;;;;;;;;;;5098077;28;20400;-80
2022/11/11 03:36:12;;;;;;;30.80;16.88;;;;;;;;;;5107978;28;20040;-79
2022/11/11 03:39:16;;;;;;;29.80;16.73;;;;;;;;;;5106275;28;20407;-79
2022/11/11 03:42:20;;;;;;;28.35;16.48;;;;;;;;;;5095881;28;20476;-80
2022/11/11 03:45:25;;;;;;;47.63;29.13;;;;;;;;;;5094881;28;20040;-79
2022/11/11 03:48:33;;;;;;;48.53;28.52;;;;;;;;;;5094529;28;20044;-79
2022/11/11 03:51:37;;;;;;;38.45;22.77;;;;;;;;;;5094774;28;20048;-78
2022/11/11 03:54:40;;;;;;;36.20;18.95;;;;;;;;;;5094047;28;20043;-80
2022/11/11 03:57:45;;;;;;;36.20;19.02;;;;;;;;;;5094706;28;20047;-79
2022/11/11 04:00:49;;;;;;;34.78;18.60;;;;;;;;;;5094198;28;20052;-78
2022/11/11 04:10:39;;;;;;;29.67;18.08;;;;;;;;;;5094179;28;20044;-78
2022/11/11 04:17:08;;;;;;;31.70;17.15;;;;;;;;;;5094399;28;20044;-79
2022/11/11 04:23:34;;;;;;;34.38;17.10;;;;;;;;;;5093960;28;20040;-78
2022/11/11 04:26:37;;;;;;;30.70;16.38;;;;;;;;;;5093942;28;20040;-79
2022/11/11 04:29:41;;;;;;;27.70;16.92;;;;;;;;;;5093441;28;20040;-79
2022/11/11 04:32:46;;;;;;;28.30;15.82;;;;;;;;;;5093723;28;20036;-78
2022/11/11 04:35:50;;;;;;;28.25;15.93;;;;;;;;;;5093544;28;20052;-79
2022/11/11 04:42:17;;;;;;;26.55;14.93;;;;;;;;;;5093265;28;20047;-79
2022/11/11 04:45:29;;;;;;;25.10;14.23;;;;;;;;;;5094310;28;20040;-80
2022/11/11 04:48:33;;;;;;;24.65;15.05;;;;;;;;;;5093673;28;20044;-79
2022/11/11 04:58:25;;;;;;;24.00;15.55;;;;;;;;;;5093860;28;20044;-79
2022/11/11 05:04:52;;;;;;;28.83;16.70;;;;;;;;;;5093256;28;20048;-78
2022/11/11 05:11:20;;;;;;;24.85;15.27;;;;;;;;;;5092895;28;20055;-78
2022/11/11 05:21:25;;;;;;;30.13;17.00;;;;;;;;;;5077768;28;20047;-79
2022/11/11 05:27:52;;;;;;;24.80;14.65;;;;;;;;;;5093374;28;20040;-80
2022/11/11 05:30:56;;;;;;;27.90;16.57;;;;;;;;;;5093114;28;20044;-78
2022/11/11 05:34:01;;;;;;;27.02;14.82;;;;;;;;;;5095374;28;20262;-80
2022/11/11 05:37:09;;;;;;;30.27;17.35;;;;;;;;;;5109302;28;20044;-80
2022/11/11 05:40:14;;;;;;;31.90;19.45;;;;;;;;;;5095899;28;20037;-80
2022/11/11 05:43:18;;;;;;;32.78;18.73;;;;;;;;;;5093554;28;20044;-80
2022/11/11 05:46:22;;;;;;;25.90;14.48;;;;;;;;;;5095499;28;20048;-78
2022/11/11 05:49:26;;;;;;;22.95;14.48;;;;;;;;;;5096936;28;20048;-79
2022/11/11 05:52:30;;;;;;;21.30;13.00;;;;;;;;;;5096744;28;20044;-78
2022/11/11 05:55:35;;;;;;;26.80;14.65;;;;;;;;;;5096515;28;20040;-79
2022/11/11 05:58:39;;;;;;;23.23;14.68;;;;;;;;;;5096732;28;20040;-79
2022/11/11 06:01:42;;;;;;;31.92;18.60;;;;;;;;;;5096683;28;20052;-78
2022/11/11 06:04:47;;;;;;;32.10;17.30;;;;;;;;;;5092094;28;20031;-81
2022/11/11 06:07:53;;;;;;;32.90;18.45;;;;;;;;;;5091213;28;20040;-80
2022/11/11 06:10:57;;;;;;;25.17;13.68;;;;;;;;;;5096780;28;20040;-81
2022/11/11 06:14:02;;;;;;;25.67;13.32;;;;;;;;;;5098640;28;20040;-80
2022/11/11 06:17:06;;;;;;;25.75;14.55;;;;;;;;;;5083683;28;20036;-81
2022/11/11 06:20:10;;;;;;;23.20;13.80;;;;;;;;;;5093972;28;20052;-78
2022/11/11 06:23:14;;;;;;;29.23;15.33;;;;;;;;;;5077088;28;20036;-79
2022/11/11 06:26:18;;;;;;;24.60;13.90;;;;;;;;;;5076292;28;20270;-81
2022/11/11 06:29:22;;;;;;;23.63;13.48;;;;;;;;;;5083253;28;20036;-81
2022/11/11 06:32:27;;;;;;;24.33;15.30;;;;;;;;;;5095719;28;20463;-81
2022/11/11 06:35:31;;;;;;;23.87;14.40;;;;;;;;;;5080677;28;20457;-79
2022/11/11 06:38:35;;;;;;;26.05;14.98;;;;;;;;;;5091852;28;20411;-80
2022/11/11 06:41:39;;;;;;;19.38;11.93;;;;;;;;;;5096045;28;20052;-79
2022/11/11 06:44:43;;;;;;;24.80;13.13;;;;;;;;;;5095657;28;20044;-80
2022/11/11 06:47:46;;;;;;;20.70;13.20;;;;;;;;;;5101848;28;20041;-78
2022/11/11 06:50:50;;;;;;;34.53;17.35;;;;;;;;;;5097340;28;20044;-79
2022/11/11 06:53:54;;;;;;;26.58;17.25;;;;;;;;;;5101358;28;20040;-79
2022/11/11 06:56:58;;;;;;;28.42;18.55;;;;;;;;;;5100283;28;20480;-78
2022/11/11 07:00:04;;;;;;;34.60;20.38;;;;;;;;;;5098783;28;20048;-81
2022/11/11 07:03:10;;;;;;;21.60;12.68;;;;;;;;;;5097519;28;20489;-80
2022/11/11 07:06:14;;;;;;;16.98;11.48;;;;;;;;;;5093733;28;20040;-78
2022/11/11 07:09:18;;;;;;;21.50;13.32;;;;;;;;;;5089917;28;20484;-79
2022/11/11 07:12:22;;;;;;;17.58;11.10;;;;;;;;;;5094768;28;20063;-78
2022/11/11 07:15:27;;;;;;;12.60;6.37;;;;;;;;;;5095115;28;20048;-81
2022/11/11 07:18:31;;;;;;;13.18;8.48;;;;;;;;;;5094956;28;20044;-82
2022/11/11 07:21:34;;;;;;;10.68;6.93;;;;;;;;;;5094196;28;20044;-79
2022/11/11 07:24:38;;;;;;;18.70;9.35;;;;;;;;;;5094730;28;20044;-79
2022/11/11 07:27:42;;;;;;;21.50;10.80;;;;;;;;;;5094761;28;20040;-79
2022/11/11 07:30:46;;;;;;;36.58;18.60;;;;;;;;;;5093601;28;20044;-79
2022/11/11 07:33:49;;;;;;;25.75;13.18;;;;;;;;;;5080575;28;20041;-80
2022/11/11 07:36:54;;;;;;;18.23;9.10;;;;;;;;;;5074244;28;20048;-80
2022/11/11 07:39:58;;;;;;;19.35;10.65;;;;;;;;;;5075283;28;20044;-78
2022/11/11 07:43:02;;;;;;;8.85;4.93;;;;;;;;;;5085793;28;20040;-79
2022/11/11 07:46:05;;;;;;;11.40;4.85;;;;;;;;;;5074424;28;20491;-78
2022/11/11 08:06:29;;;;;;;13.80;6.63;;;;;;;;;;5074647;27;1369492;-76
2022/11/11 08:09:35;;;;;;;13.52;7.72;;;;;;;;;;5151976;27;20049;-76
2022/11/11 08:16:05;;;;;;;10.02;6.60;;;;;;;;;;5151935;27;20035;-75
2022/11/11 08:19:09;;;;;;;7.88;4.85;;;;;;;;;;5152198;27;20051;-77
2022/11/11 08:22:13;;;;;;;16.75;7.45;;;;;;;;;;5152144;27;20098;-79
2022/11/11 08:25:17;;;;;;;18.10;8.40;;;;;;;;;;5152047;27;20039;-77
2022/11/11 08:28:21;;;;;;;8.23;3.97;;;;;;;;;;5152019;27;20031;-77
2022/11/11 08:31:25;;;;;;;7.00;4.40;;;;;;;;;;5152044;27;20042;-78
2022/11/11 08:34:29;;;;;;;9.50;5.05;;;;;;;;;;5151754;27;20051;-77
2022/11/11 08:37:33;;;;;;;7.05;4.43;;;;;;;;;;5151599;27;20039;-79
2022/11/11 08:40:38;;;;;;;9.32;4.65;;;;;;;;;;5151888;27;20399;-77
2022/11/11 08:43:42;;;;;;;9.23;5.13;;;;;;;;;;5151878;27;20043;-78
2022/11/11 08:46:47;;;;;;;15.53;8.37;;;;;;;;;;5150870;27;20283;-81
2022/11/11 08:49:50;;;;;;;15.50;8.30;;;;;;;;;;5158636;27;20487;-81
2022/11/11 08:52:54;;;;;;;8.85;5.60;;;;;;;;;;5151718;27;20039;-78
2022/11/11 08:56:00;;;;;;;7.22;4.45;;;;;;;;;;5152613;27;20047;-83
2022/11/11 08:59:04;;;;;;;12.13;4.47;;;;;;;;;;5139132;27;20499;-84
2022/11/11 09:02:12;;;;;;;12.10;7.43;;;;;;;;;;5151603;27;20042;-83
2022/11/11 09:05:16;;;;;;;15.13;8.77;;;;;;;;;;5150451;27;20479;-80
2022/11/11 09:08:20;;;;;;;101.78;63.47;;;;;;;;;;5136734;27;20035;-79
2022/11/11 09:11:24;;;;;;;11.45;6.20;;;;;;;;;;5137284;27;20039;-78
2022/11/11 09:14:28;;;;;;;13.98;6.72;;;;;;;;;;5136948;27;20051;-79
2022/11/11 09:17:31;;;;;;;10.68;6.60;;;;;;;;;;5138129;27;20046;-79
2022/11/11 09:20:36;;;;;;;9.25;4.90;;;;;;;;;;5137398;27;20065;-79
2022/11/11 09:23:40;;;;;;;13.43;6.88;;;;;;;;;;5136396;27;20051;-79
2022/11/11 09:26:49;;;;;;;12.38;6.72;;;;;;;;;;5136813;27;20046;-78
2022/11/11 09:29:53;;;;;;;8.40;4.78;;;;;;;;;;5136868;27;20043;-78
2022/11/11 09:33:01;;;;;;;13.23;7.68;;;;;;;;;;5136882;27;20408;-78
2022/11/11 09:36:05;;;;;;;15.98;7.65;;;;;;;;;;5136932;27;20039;-78
2022/11/11 09:39:10;;;;;;;7.88;5.18;;;;;;;;;;5136561;27;20035;-78
2022/11/11 09:42:43;;;;;;;13.25;7.28;;;;;;;;;;5136866;27;20035;-78
2022/11/11 09:45:57;;;;;;;14.70;7.35;;;;;;;;;;5137054;27;20035;-80
2022/11/11 09:49:34;;;;;;;14.68;6.82;;;;;;;;;;5136455;27;20179;-78
2022/11/11 09:52:38;;;;;;;12.60;7.18;;;;;;;;;;5136368;27;20039;-77
2022/11/11 09:56:04;;;;;;;11.45;5.93;;;;;;;;;;5136390;27;20039;-79
2022/11/11 09:59:23;;;;;;;19.75;8.20;;;;;;;;;;5136296;27;20043;-80
2022/11/11 10:02:37;;;;;;;6.50;4.43;;;;;;;;;;5124479;27;20399;-79
2022/11/11 10:05:49;;;;;;;7.67;4.80;;;;;;;;;;5135725;27;20047;-79
2022/11/11 10:09:04;;;;;;;15.00;7.65;;;;;;;;;;5136484;27;20275;-78
2022/11/11 10:12:14;;;;;;;16.02;7.22;;;;;;;;;;5136157;27;20047;-78
2022/11/11 10:15:19;;;;;;;17.80;8.70;;;;;;;;;;5135892;27;20039;-79
2022/11/11 10:18:35;;;;;;;12.07;7.07;;;;;;;;;;5136078;27;20471;-79
2022/11/11 10:22:01;;;;;;;10.00;5.03;;;;;;;;;;5136575;27;20043;-80
2022/11/11 10:25:11;;;;;;;15.88;7.07;;;;;;;;;;5136090;27;20040;-80
2022/11/11 10:28:20;;;;;;;12.90;7.88;;;;;;;;;;5139552;27;20039;-80
2022/11/11 10:31:24;;;;;;;8.55;4.30;;;;;;;;;;5139069;27;20043;-79
2022/11/11 10:34:32;;;;;;;13.30;5.18;;;;;;;;;;5139554;27;20055;-80
2022/11/11 10:37:40;;;;;;;6.20;3.58;;;;;;;;;;5138058;27;20047;-79
2022/11/11 10:40:56;;;;;;;5.28;3.90;;;;;;;;;;5138483;27;20051;-80
2022/11/11 10:44:00;;;;;;;10.77;6.50;;;;;;;;;;5137040;27;20039;-79
2022/11/11 10:47:15;;;;;;;12.47;6.33;;;;;;;;;;5138205;27;20419;-80
2022/11/11 10:50:35;;;;;;;8.37;4.83;;;;;;;;;;5140260;27;20625;-80
2022/11/11 10:54:24;;;;;;;23.15;5.13;;;;;;;;;;5140396;27;20039;-79
2022/11/11 10:58:01;;;;;;;13.07;7.95;;;;;;;;;;5136347;27;20047;-79
2022/11/11 11:01:09;;;;;;;10.48;6.68;;;;;;;;;;5137417;27;20035;-79
2022/11/11 11:04:32;;;;;;;5.40;3.33;;;;;;;;;;5140213;27;20047;-79
2022/11/11 11:07:42;;;;;;;16.77;6.65;;;;;;;;;;5137988;27;20043;-79
2022/11/11 11:10:56;;;;;;;10.57;5.70;;;;;;;;;;5137593;27;20035;-79
2022/11/11 11:14:07;;;;;;;7.38;4.57;;;;;;;;;;5129551;27;20047;-80
2022/11/11 11:17:21;;;;;;;8.10;3.33;;;;;;;;;;5140833;27;20491;-79
2022/11/11 11:20:25;;;;;;;13.07;4.80;;;;;;;;;;5142449;27;20236;-80
2022/11/11 11:23:47;;;;;;;11.15;6.18;;;;;;;;;;5137520;27;20039;-80
2022/11/11 11:26:57;;;;;;;13.70;6.65;;;;;;;;;;5137190;27;20047;-80
2022/11/11 11:30:17;;;;;;;13.10;6.70;;;;;;;;;;5139905;27;20043;-79
2022/11/11 11:33:21;;;;;;;24.42;8.40;;;;;;;;;;5140773;27;20043;-80
2022/11/11 11:36:25;;;;;;;7.97;3.17;;;;;;;;;;5139249;27;20035;-80
2022/11/11 11:39:34;;;;;;;9.57;4.78;;;;;;;;;;5139614;27;20395;-82
2022/11/11 11:42:38;;;;;;;5.05;3.28;;;;;;;;;;5137972;27;20035;-79
2022/11/11 11:45:54;;;;;;;13.10;5.25;;;;;;;;;;5139953;27;20036;-79
2022/11/11 11:49:08;;;;;;;;;;;;;;;;;;5144850;27;20039;-78
2022/11/11 11:52:19;;;;;;;6.47;3.58;;;;;;;;;;5138549;27;20251;-79
2022/11/11 11:55:33;;;;;;;7.15;4.35;;;;;;;;;;5137629;28;20491;-79
2022/11/11 11:58:59;;;;;;;4.88;2.75;;;;;;;;;;5138706;28;20403;-80
2022/11/11 12:02:30;;;;;;;12.32;6.05;;;;;;;;;;5140265;28;20448;-80
2022/11/11 12:05:35;;;;;;;9.60;4.88;;;;;;;;;;5139460;28;20047;-79
2022/11/11 12:09:00;;;;;;;10.10;3.72;;;;;;;;;;5139489;28;20059;-79
2022/11/11 12:12:29;;;;;;;6.45;3.85;;;;;;;;;;5139706;28;20047;-79
2022/11/11 12:15:36;;;;;;;11.07;5.85;;;;;;;;;;5140095;28;20043;-80
2022/11/11 12:18:49;;;;;;;13.07;5.28;;;;;;;;;;5141640;28;20035;-81
2022/11/11 12:22:03;;;;;;;19.92;9.20;;;;;;;;;;5140489;28;20051;-81
2022/11/11 12:25:19;;;;;;;20.50;10.55;;;;;;;;;;5139915;28;20047;-81
2022/11/11 12:28:47;;;;;;;14.98;7.00;;;;;;;;;;5139360;28;20043;-81
2022/11/11 12:32:02;;;;;;;10.43;4.95;;;;;;;;;;5141039;28;20051;-82
2022/11/11 12:35:27;;;;;;;7.82;3.60;;;;;;;;;;5141594;28;20047;-79
2022/11/11 12:39:00;;;;;;;22.37;13.20;;;;;;;;;;5129579;28;20059;-80
2022/11/11 12:42:24;;;;;;;14.75;8.90;;;;;;;;;;5129323;27;20042;-80
2022/11/11 12:45:54;;;;;;;11.85;7.30;;;;;;;;;;5147267;27;20035;-81
2022/11/11 12:49:03;;;;;;;8.32;4.95;;;;;;;;;;5147690;27;20035;-81
2022/11/11 12:52:27;;;;;;;6.22;4.18;;;;;;;;;;5143354;27;20051;-80
2022/11/11 12:55:49;;;;;;;6.88;3.63;;;;;;;;;;5150133;27;20383;-80
2022/11/11 12:59:04;;;;;;;11.77;4.85;;;;;;;;;;5130360;27;20051;-80
2022/11/11 13:02:46;;;;;;;13.57;7.38;;;;;;;;;;5147061;27;20039;-80
2022/11/11 13:06:20;;;;;;;12.25;7.80;;;;;;;;;;5147988;27;20051;-80
2022/11/11 13:09:32;;;;;;;12.23;7.43;;;;;;;;;;5135571;27;20047;-80
2022/11/11 13:12:59;;;;;;;8.90;4.00;;;;;;;;;;5150537;27;20392;-81
2022/11/11 13:16:03;;;;;;;12.05;6.50;;;;;;;;;;5148228;27;20035;-80
2022/11/11 13:19:20;;;;;;;11.80;5.80;;;;;;;;;;5149934;27;20039;-81
2022/11/11 13:22:28;;;;;;;11.55;6.22;;;;;;;;;;5138733;27;20043;-84
2022/11/11 13:25:36;;;;;;;14.65;7.35;;;;;;;;;;5137152;27;20471;-82
2022/11/11 13:28:48;;;;;;;14.30;7.28;;;;;;;;;;5136634;27;20039;-82
2022/11/11 13:31:53;;;;;;;18.27;8.75;;;;;;;;;;5137937;27;20043;-82
2022/11/11 13:34:58;;;;;;;14.15;6.10;;;;;;;;;;5138174;27;20039;-83
2022/11/11 13:38:03;;;;;;;14.98;7.40;;;;;;;;;;5136538;27;20039;-82
2022/11/11 13:41:07;;;;;;;11.90;6.13;;;;;;;;;;5136979;27;20047;-82
2022/11/11 13:44:22;;;;;;;13.05;7.65;;;;;;;;;;5137029;27;20035;-82
2022/11/11 13:47:38;;;;;;;13.98;7.72;;;;;;;;;;5136685;27;20039;-81
2022/11/11 13:50:42;;;;;;;14.82;8.27;;;;;;;;;;5136709;27;20047;-81
2022/11/11 13:53:46;;;;;;;15.77;8.53;;;;;;;;;;5136921;27;20043;-82
2022/11/11 13:56:53;;;;;;;10.93;6.05;;;;;;;;;;5136560;27;20399;-82
2022/11/11 14:00:00;;;;;;;14.77;6.78;;;;;;;;;;5136403;27;20043;-82
2022/11/11 14:03:16;;;;;;;15.73;8.43;;;;;;;;;;5144376;27;20043;-81
2022/11/11 14:06:26;;;;;;;;;;;;;;;;;;5136462;27;20043;-81
2022/11/11 14:10:00;;;;;;;16.42;8.73;;;;;;;;;;5135717;27;19915;-82
2022/11/11 14:13:22;;;;;;;14.45;7.80;;;;;;;;;;5136222;27;20051;-82
2022/11/11 14:16:35;;;;;;;24.05;11.93;;;;;;;;;;5136187;27;20039;-82
2022/11/11 14:19:39;;;;;;;17.65;9.32;;;;;;;;;;5136429;27;20039;-82
2022/11/11 14:22:42;;;;;;;20.92;11.68;;;;;;;;;;5135947;27;20043;-81
2022/11/11 14:25:51;;;;;;;91.28;49.08;;;;;;;;;;5136209;27;20047;-82
2022/11/11 14:29:02;;;;;;;33.70;16.85;;;;;;;;;;5135594;27;20035;-82
2022/11/11 14:32:06;;;;;;;97.07;69.57;;;;;;;;;;5135929;27;20392;-82
2022/11/11 14:35:27;;;;;;;38.17;22.15;;;;;;;;;;5135978;27;20050;-82
2022/11/11 14:39:14;;;;;;;153.00;86.32;;;;;;;;;;5135932;27;20043;-82
2022/11/11 14:42:34;;;;;;;292.77;155.10;;;;;;;;;;5142926;27;20055;-81
2022/11/11 14:45:44;;;;;;;82.72;39.67;;;;;;;;;;5135606;27;20036;-81
2022/11/11 14:48:47;;;;;;;173.45;93.88;;;;;;;;;;5150291;27;20061;-82
2022/11/11 14:52:00;;;;;;;171.80;102.00;;;;;;;;;;5136776;27;20035;-82
2022/11/11 14:55:25;;;;;;;55.47;28.00;;;;;;;;;;5135430;27;20043;-82
2022/11/11 14:58:34;;;;;;;98.32;42.25;;;;;;;;;;5135368;27;20031;-82
2022/11/11 15:01:39;;;;;;;290.42;111.97;;;;;;;;;;5140094;27;20039;-82
2022/11/11 15:04:43;;;;;;;130.85;50.75;;;;;;;;;;5135344;27;20043;-83
2022/11/11 15:08:15;;;;;;;87.78;33.78;;;;;;;;;;5135087;27;20035;-81
2022/11/11 15:11:32;;;;;;;135.85;48.17;;;;;;;;;;5135525;27;20058;-80
2022/11/11 15:14:49;;;;;;;66.90;31.20;;;;;;;;;;5137262;27;20086;-80
2022/11/11 15:18:12;;;;;;;63.05;26.02;;;;;;;;;;5134700;27;20043;-79
2022/11/11 15:21:24;;;;;;;48.60;24.60;;;;;;;;;;5142814;27;20046;-83
2022/11/11 15:25:07;;;;;;;55.28;25.92;;;;;;;;;;5143712;27;20076;-82
2022/11/11 15:28:35;;;;;;;42.47;21.52;;;;;;;;;;5141851;27;20050;-79
2022/11/11 15:31:54;;;;;;;37.47;19.65;;;;;;;;;;5145424;27;20047;-80
2022/11/11 15:35:09;;;;;;;33.38;18.67;;;;;;;;;;5142626;27;20039;-81
2022/11/11 15:38:16;;;;;;;37.90;18.45;;;;;;;;;;5139304;27;20051;-81
2022/11/11 15:41:26;;;;;;;35.88;18.65;;;;;;;;;;5135463;27;20043;-83
2022/11/11 15:44:33;;;;;;;41.17;21.08;;;;;;;;;;5134636;27;20043;-83
2022/11/11 15:47:37;;;;;;;46.92;23.00;;;;;;;;;;5134461;27;20039;-82
2022/11/11 15:50:41;;;;;;;57.63;33.20;;;;;;;;;;5134484;27;20035;-83
2022/11/11 15:53:44;;;;;;;44.45;25.50;;;;;;;;;;5121384;28;20039;-78
2022/11/11 15:56:48;;;;;;;65.78;36.10;;;;;;;;;;5134583;28;20047;-78
2022/11/11 15:59:54;;;;;;;63.53;32.92;;;;;;;;;;5134468;28;20384;-78
2022/11/11 16:02:58;;;;;;;60.13;35.10;;;;;;;;;;5134782;28;20039;-78
2022/11/11 16:06:06;;;;;;;84.87;46.33;;;;;;;;;;5133984;28;20062;-77
2022/11/11 16:09:13;;;;;;;87.85;48.58;;;;;;;;;;5134177;28;20039;-77
2022/11/11 16:12:29;;;;;;;59.45;31.42;;;;;;;;;;5134794;28;20031;-85
2022/11/11 16:15:59;;;;;;;49.60;30.00;;;;;;;;;;5134552;27;20043;-83
2022/11/11 16:19:30;;;;;;;75.63;38.75;;;;;;;;;;5146876;27;20403;-84
2022/11/11 16:22:38;;;;;;;83.85;43.92;;;;;;;;;;5138469;27;20043;-82
2022/11/11 16:25:42;;;;;;;81.80;39.45;;;;;;;;;;5138359;27;20039;-81
2022/11/11 16:28:51;;;;;;;98.80;48.00;;;;;;;;;;5138031;27;20035;-80
2022/11/11 16:31:55;;;;;;;101.28;48.83;;;;;;;;;;5138045;27;20271;-81
2022/11/11 16:34:58;;;;;;;114.65;53.58;;;;;;;;;;5137949;27;20039;-80
2022/11/11 16:38:04;;;;;;;90.55;47.78;;;;;;;;;;5138187;27;20039;-81
2022/11/11 16:41:40;;;;;;;103.53;50.28;;;;;;;;;;5138222;27;20035;-81
2022/11/11 16:44:48;;;;;;;147.80;77.85;;;;;;;;;;5137572;27;20047;-81
2022/11/11 16:47:52;;;;;;;131.25;73.28;;;;;;;;;;5122918;27;20047;-81
2022/11/11 16:51:03;;;;;;;158.60;94.72;;;;;;;;;;5137467;27;20043;-81
2022/11/11 16:54:20;;;;;;;140.15;80.90;;;;;;;;;;5137570;27;20415;-81
2022/11/11 16:57:33;;;;;;;131.32;72.75;;;;;;;;;;5135907;27;20039;-82
2022/11/11 17:00:37;;;;;;;126.18;69.70;;;;;;;;;;5137538;27;20504;-80
2022/11/11 17:03:53;;;;;;;114.93;57.65;;;;;;;;;;5127937;27;20043;-82
2022/11/11 17:06:58;;;;;;;93.53;49.40;;;;;;;;;;5136876;27;20043;-81
2022/11/11 17:10:24;;;;;;;86.65;44.63;;;;;;;;;;5136883;27;20039;-82
2022/11/11 17:13:29;;;;;;;79.82;45.40;;;;;;;;;;5137054;27;20481;-81
2022/11/11 17:16:33;;;;;;;85.07;41.90;;;;;;;;;;5136922;27;20047;-85
2022/11/11 17:19:37;;;;;;;103.55;47.95;;;;;;;;;;5137413;27;20414;-85
2022/11/11 17:22:54;;;;;;;80.47;38.85;;;;;;;;;;5137419;27;20047;-85
2022/11/11 17:26:00;;;;;;;68.53;33.88;;;;;;;;;;5136931;27;20039;-86
2022/11/11 17:29:03;;;;;;;85.43;38.70;;;;;;;;;;5137181;27;20043;-85
2022/11/11 17:32:07;;;;;;;106.43;51.78;;;;;;;;;;5136913;27;20488;-84
2022/11/11 17:35:11;;;;;;;109.45;50.88;;;;;;;;;;5123624;27;20039;-84
2022/11/11 17:38:15;;;;;;;114.15;56.42;;;;;;;;;;5136442;27;20047;-85
2022/11/11 17:41:18;;;;;;;137.40;61.92;;;;;;;;;;5136512;27;20039;-84
2022/11/11 17:44:23;;;;;;;133.90;51.97;;;;;;;;;;5138232;27;20043;-85
2022/11/11 17:47:27;;;;;;;92.00;41.00;;;;;;;;;;5143956;27;20492;-84
2022/11/11 17:50:35;;;;;;;101.18;45.92;;;;;;;;;;5137096;27;20472;-84
2022/11/11 17:53:40;;;;;;;142.93;55.33;;;;;;;;;;5137095;27;20043;-84
2022/11/11 17:56:45;;;;;;;122.32;48.47;;;;;;;;;;5137692;27;20043;-83
2022/11/11 17:59:48;;;;;;;138.85;62.13;;;;;;;;;;5136589;27;20051;-85
2022/11/11 18:02:54;;;;;;;149.07;65.03;;;;;;;;;;5136853;27;20047;-83
2022/11/11 18:05:59;;;;;;;160.80;72.18;;;;;;;;;;5138965;27;20040;-82
2022/11/11 18:09:03;;;;;;;158.13;73.70;;;;;;;;;;5142924;27;20047;-83
2022/11/11 18:12:08;;;;;;;137.53;68.67;;;;;;;;;;5141894;27;20047;-82
2022/11/11 18:15:12;;;;;;;125.53;62.78;;;;;;;;;;5136323;27;20035;-83
2022/11/11 18:18:16;;;;;;;92.07;48.00;;;;;;;;;;5135606;27;20491;-83
2022/11/11 18:21:20;;;;;;;94.63;46.55;;;;;;;;;;5135857;27;20047;-83
2022/11/11 18:24:24;;;;;;;90.38;49.47;;;;;;;;;;5135611;27;20039;-83
2022/11/11 18:27:27;;;;;;;81.32;40.33;;;;;;;;;;5145627;27;20061;-83
2022/11/11 18:30:31;;;;;;;74.18;38.88;;;;;;;;;;5140402;27;20043;-82
2022/11/11 18:33:36;;;;;;;107.07;42.65;;;;;;;;;;5135137;27;20035;-82
2022/11/11 18:36:40;;;;;;;80.97;38.95;;;;;;;;;;5136415;27;20043;-80
2022/11/11 18:39:44;;;;;;;70.72;35.60;;;;;;;;;;5135003;27;20040;-81
2022/11/11 18:42:47;;;;;;;66.25;33.50;;;;;;;;;;5135472;27;20043;-81
2022/11/11 18:45:50;;;;;;;77.53;36.05;;;;;;;;;;5135237;27;20035;-82
2022/11/11 18:48:59;;;;;;;105.05;47.78;;;;;;;;;;5135641;27;20047;-81
2022/11/11 18:52:03;;;;;;;86.70;42.25;;;;;;;;;;5135616;27;20047;-82
2022/11/11 18:55:08;;;;;;;71.65;34.85;;;;;;;;;;5135088;27;20476;-85
2022/11/11 18:58:12;;;;;;;71.03;35.87;;;;;;;;;;5135881;27;20043;-84
2022/11/11 19:01:22;;;;;;;58.60;32.55;;;;;;;;;;5136263;27;20488;-85
2022/11/11 19:04:26;;;;;;;61.40;32.90;;;;;;;;;;5135227;27;20491;-85
2022/11/11 19:07:29;;;;;;;79.15;35.53;;;;;;;;;;5122695;27;20051;-85
2022/11/11 19:10:33;;;;;;;79.75;37.75;;;;;;;;;;5134976;27;20483;-85
2022/11/11 19:13:37;;;;;;;67.82;35.00;;;;;;;;;;5135094;27;20059;-85
2022/11/11 19:16:41;;;;;;;62.50;33.28;;;;;;;;;;5144249;27;20047;-85
2022/11/11 19:19:46;;;;;;;53.30;28.40;;;;;;;;;;5134986;27;20039;-85
2022/11/11 19:22:50;;;;;;;76.47;37.45;;;;;;;;;;5135850;27;20043;-86
2022/11/11 19:25:58;;;;;;;64.03;35.15;;;;;;;;;;5137042;27;20031;-80
2022/11/11 19:29:04;;;;;;;58.50;28.80;;;;;;;;;;5135111;27;20669;-85
2022/11/11 19:32:09;;;;;;;56.55;31.63;;;;;;;;;;5134840;27;20042;-85
2022/11/11 19:35:12;;;;;;;59.55;28.77;;;;;;;;;;5135088;27;20051;-85
2022/11/11 19:38:16;;;;;;;55.35;29.75;;;;;;;;;;5134753;27;20031;-86
2022/11/11 19:41:24;;;;;;;56.15;29.67;;;;;;;;;;5134840;27;20042;-86
2022/11/11 19:44:30;;;;;;;46.38;28.60;;;;;;;;;;5135303;27;20040;-86
2022/11/11 19:47:34;;;;;;;56.67;29.05;;;;;;;;;;5134659;27;20051;-82
2022/11/11 19:50:39;;;;;;;48.33;29.75;;;;;;;;;;5134572;27;20047;-81